sensor_id;sensor_type;location;lat;lon;timestamp;pressure;altitude;pressure_sealevel;temperature;humidity
21623;BME280;10973;46.706;12.340;2023-04-05T00:02:04;87091.06;;;0.39;37.18
21623;BME280;10973;46.706;12.340;2023-04-05T00:04:32;87085.59;;;0.41;37.31
21623;BME280;10973;46.706;12.340;2023-04-05T00:07:00;87087.44;;;0.40;37.65
21623;BME280;10973;46.706;12.340;2023-04-05T00:09:27;87087.84;;;0.42;37.72
21623;BME280;10973;46.706;12.340;2023-04-05T00:11:54;87083.75;;;0.41;37.80
21623;BME280;10973;46.706;12.340;2023-04-05T00:14:22;87085.13;;;0.39;37.71
21623;BME280;10973;46.706;12.340;2023-04-05T00:16:52;87086.66;;;0.40;37.43
21623;BME280;10973;46.706;12.340;2023-04-05T00:19:19;87085.91;;;0.39;37.28
21623;BME280;10973;46.706;12.340;2023-04-05T00:21:46;87082.53;;;0.39;37.30
21623;BME280;10973;46.706;12.340;2023-04-05T00:24:13;87079.06;;;0.35;37.40
21623;BME280;10973;46.706;12.340;2023-04-05T00:26:41;87083.38;;;0.31;37.75
21623;BME280;10973;46.706;12.340;2023-04-05T00:29:08;87083.13;;;0.24;37.69
21623;BME280;10973;46.706;12.340;2023-04-05T00:31:36;87084.84;;;0.20;37.39
21623;BME280;10973;46.706;12.340;2023-04-05T00:34:03;87077.69;;;0.17;37.66
21623;BME280;10973;46.706;12.340;2023-04-05T00:36:30;87076.19;;;0.16;37.88
21623;BME280;10973;46.706;12.340;2023-04-05T00:38:58;87087.19;;;0.13;37.59
21623;BME280;10973;46.706;12.340;2023-04-05T00:41:25;87084.59;;;0.13;37.97
21623;BME280;10973;46.706;12.340;2023-04-05T00:43:52;87078.97;;;0.11;38.19
21623;BME280;10973;46.706;12.340;2023-04-05T00:46:20;87070.75;;;0.09;38.27
21623;BME280;10973;46.706;12.340;2023-04-05T00:48:49;87079.22;;;-0.03;38.10
21623;BME280;10973;46.706;12.340;2023-04-05T00:51:19;87078.44;;;-0.04;38.00
21623;BME280;10973;46.706;12.340;2023-04-05T00:53:47;87077.13;;;-0.10;38.14
21623;BME280;10973;46.706;12.340;2023-04-05T00:56:14;87074.84;;;-0.11;38.73
21623;BME280;10973;46.706;12.340;2023-04-05T00:58:42;87071.81;;;-0.13;38.28
21623;BME280;10973;46.706;12.340;2023-04-05T01:01:16;87072.00;;;-0.18;38.19
21623;BME280;10973;46.706;12.340;2023-04-05T01:03:51;87077.66;;;-0.25;38.33
21623;BME280;10973;46.706;12.340;2023-04-05T01:09:56;87068.91;;;-0.32;38.66
21623;BME280;10973;46.706;12.340;2023-04-05T01:12:27;87076.22;;;-0.34;38.78
21623;BME280;10973;46.706;12.340;2023-04-05T01:14:55;87076.53;;;-0.36;39.01
21623;BME280;10973;46.706;12.340;2023-04-05T01:17:25;87070.91;;;-0.38;38.85
21623;BME280;10973;46.706;12.340;2023-04-05T01:19:59;87074.25;;;-0.37;39.04
21623;BME280;10973;46.706;12.340;2023-04-05T01:31:19;87071.31;;;-0.56;39.00
21623;BME280;10973;46.706;12.340;2023-04-05T01:33:58;87068.44;;;-0.55;39.08
21623;BME280;10973;46.706;12.340;2023-04-05T01:36:39;87064.75;;;-0.54;39.05
21623;BME280;10973;46.706;12.340;2023-04-05T01:39:10;87062.50;;;-0.55;39.23
21623;BME280;10973;46.706;12.340;2023-04-05T01:41:39;87063.75;;;-0.61;39.20
21623;BME280;10973;46.706;12.340;2023-04-05T01:44:07;87058.41;;;-0.65;39.03
21623;BME280;10973;46.706;12.340;2023-04-05T01:46:35;87069.09;;;-0.66;39.23
21623;BME280;10973;46.706;12.340;2023-04-05T01:49:03;87058.09;;;-0.63;38.99
21623;BME280;10973;46.706;12.340;2023-04-05T01:51:31;87066.19;;;-0.65;39.23
21623;BME280;10973;46.706;12.340;2023-04-05T01:53:59;87067.56;;;-0.67;39.36
21623;BME280;10973;46.706;12.340;2023-04-05T01:56:27;87068.81;;;-0.74;39.20
21623;BME280;10973;46.706;12.340;2023-04-05T01:58:54;87069.00;;;-0.79;38.97
21623;BME280;10973;46.706;12.340;2023-04-05T02:01:22;87061.41;;;-0.84;39.10
21623;BME280;10973;46.706;12.340;2023-04-05T02:03:49;87065.19;;;-0.81;39.41
21623;BME280;10973;46.706;12.340;2023-04-05T02:06:17;87070.69;;;-0.83;39.43
21623;BME280;10973;46.706;12.340;2023-04-05T02:08:45;87062.03;;;-0.87;39.77
21623;BME280;10973;46.706;12.340;2023-04-05T02:11:13;87066.94;;;-0.94;39.53
21623;BME280;10973;46.706;12.340;2023-04-05T02:13:40;87062.84;;;-1.03;39.73
21623;BME280;10973;46.706;12.340;2023-04-05T02:16:08;87054.81;;;-1.10;39.36
21623;BME280;10973;46.706;12.340;2023-04-05T02:18:36;87059.53;;;-1.12;39.22
21623;BME280;10973;46.706;12.340;2023-04-05T02:21:06;87063.50;;;-1.15;39.53
21623;BME280;10973;46.706;12.340;2023-04-05T02:23:36;87058.06;;;-1.22;39.91
21623;BME280;10973;46.706;12.340;2023-04-05T02:26:03;87056.06;;;-1.25;39.70
21623;BME280;10973;46.706;12.340;2023-04-05T02:28:31;87066.41;;;-1.25;39.97
21623;BME280;10973;46.706;12.340;2023-04-05T02:30:58;87056.56;;;-1.31;40.36
21623;BME280;10973;46.706;12.340;2023-04-05T02:33:25;87057.94;;;-1.25;40.25
21623;BME280;10973;46.706;12.340;2023-04-05T02:35:54;87055.91;;;-1.20;40.42
21623;BME280;10973;46.706;12.340;2023-04-05T02:38:21;87061.13;;;-1.28;40.74
21623;BME280;10973;46.706;12.340;2023-04-05T02:40:48;87062.81;;;-1.32;40.46
21623;BME280;10973;46.706;12.340;2023-04-05T02:43:16;87057.19;;;-1.34;40.17
21623;BME280;10973;46.706;12.340;2023-04-05T02:45:43;87058.09;;;-1.30;40.33
21623;BME280;10973;46.706;12.340;2023-04-05T02:48:13;87055.81;;;-1.32;40.24
21623;BME280;10973;46.706;12.340;2023-04-05T02:50:40;87055.50;;;-1.30;40.19
21623;BME280;10973;46.706;12.340;2023-04-05T02:53:08;87058.69;;;-1.33;40.57
21623;BME280;10973;46.706;12.340;2023-04-05T02:55:35;87053.41;;;-1.37;40.63
21623;BME280;10973;46.706;12.340;2023-04-05T02:58:03;87052.31;;;-1.36;40.81
21623;BME280;10973;46.706;12.340;2023-04-05T03:00:30;87048.06;;;-1.40;40.24
21623;BME280;10973;46.706;12.340;2023-04-05T03:02:57;87048.72;;;-1.43;40.39
21623;BME280;10973;46.706;12.340;2023-04-05T03:05:25;87044.16;;;-1.47;40.63
21623;BME280;10973;46.706;12.340;2023-04-05T03:07:52;87045.50;;;-1.49;40.52
21623;BME280;10973;46.706;12.340;2023-04-05T03:10:21;87043.84;;;-1.54;41.05
21623;BME280;10973;46.706;12.340;2023-04-05T03:12:48;87043.41;;;-1.56;41.16
21623;BME280;10973;46.706;12.340;2023-04-05T03:15:16;87048.44;;;-1.68;40.95
21623;BME280;10973;46.706;12.340;2023-04-05T03:17:43;87045.56;;;-1.66;40.88
21623;BME280;10973;46.706;12.340;2023-04-05T03:20:12;87048.44;;;-1.68;41.01
21623;BME280;10973;46.706;12.340;2023-04-05T03:22:39;87041.44;;;-1.67;41.70
21623;BME280;10973;46.706;12.340;2023-04-05T03:25:06;87046.31;;;-1.66;41.25
21623;BME280;10973;46.706;12.340;2023-04-05T03:27:34;87044.03;;;-1.67;41.50
21623;BME280;10973;46.706;12.340;2023-04-05T03:30:02;87043.59;;;-1.69;41.31
21623;BME280;10973;46.706;12.340;2023-04-05T03:32:29;87032.94;;;-1.68;41.68
21623;BME280;10973;46.706;12.340;2023-04-05T03:34:57;87039.47;;;-1.70;41.07
21623;BME280;10973;46.706;12.340;2023-04-05T03:37:24;87044.63;;;-1.70;41.17
21623;BME280;10973;46.706;12.340;2023-04-05T03:39:55;87037.81;;;-1.75;41.22
21623;BME280;10973;46.706;12.340;2023-04-05T03:42:23;87041.31;;;-1.79;40.85
21623;BME280;10973;46.706;12.340;2023-04-05T03:44:52;87045.75;;;-1.80;41.13
21623;BME280;10973;46.706;12.340;2023-04-05T03:47:19;87045.13;;;-1.85;41.15
21623;BME280;10973;46.706;12.340;2023-04-05T03:49:46;87048.03;;;-1.87;41.25
21623;BME280;10973;46.706;12.340;2023-04-05T03:52:14;87043.16;;;-1.88;41.73
21623;BME280;10973;46.706;12.340;2023-04-05T03:54:42;87040.75;;;-1.93;41.44
21623;BME280;10973;46.706;12.340;2023-04-05T03:57:09;87042.25;;;-1.92;41.69
21623;BME280;10973;46.706;12.340;2023-04-05T03:59:36;87035.28;;;-1.92;41.76
21623;BME280;10973;46.706;12.340;2023-04-05T04:02:04;87048.19;;;-1.92;41.85
21623;BME280;10973;46.706;12.340;2023-04-05T04:04:31;87039.81;;;-1.97;41.64
21623;BME280;10973;46.706;12.340;2023-04-05T04:06:58;87041.66;;;-1.98;41.90
21623;BME280;10973;46.706;12.340;2023-04-05T04:09:27;87046.06;;;-2.07;41.64
21623;BME280;10973;46.706;12.340;2023-04-05T04:11:54;87047.59;;;-2.14;41.78
21623;BME280;10973;46.706;12.340;2023-04-05T04:14:23;87045.59;;;-2.26;41.75
21623;BME280;10973;46.706;12.340;2023-04-05T04:16:52;87045.59;;;-2.26;41.82
21623;BME280;10973;46.706;12.340;2023-04-05T04:19:20;87037.88;;;-2.26;41.67
21623;BME280;10973;46.706;12.340;2023-04-05T04:21:50;87040.31;;;-2.30;42.28
21623;BME280;10973;46.706;12.340;2023-04-05T04:24:20;87047.13;;;-2.34;42.17
21623;BME280;10973;46.706;12.340;2023-04-05T04:26:48;87040.47;;;-2.35;42.18
21623;BME280;10973;46.706;12.340;2023-04-05T04:29:15;87036.81;;;-2.34;42.10
21623;BME280;10973;46.706;12.340;2023-04-05T04:31:42;87041.50;;;-2.36;42.32
21623;BME280;10973;46.706;12.340;2023-04-05T04:34:12;87039.56;;;-2.39;42.84
21623;BME280;10973;46.706;12.340;2023-04-05T04:36:40;87042.13;;;-2.39;42.38
21623;BME280;10973;46.706;12.340;2023-04-05T04:39:08;87044.09;;;-2.36;41.73
21623;BME280;10973;46.706;12.340;2023-04-05T04:41:36;87041.81;;;-2.37;42.21
21623;BME280;10973;46.706;12.340;2023-04-05T04:44:03;87036.66;;;-2.37;42.27
21623;BME280;10973;46.706;12.340;2023-04-05T04:46:33;87035.13;;;-2.38;42.16
21623;BME280;10973;46.706;12.340;2023-04-05T04:49:01;87035.44;;;-2.40;43.03
21623;BME280;10973;46.706;12.340;2023-04-05T04:51:28;87037.72;;;-2.38;42.52
21623;BME280;10973;46.706;12.340;2023-04-05T04:53:55;87045.00;;;-2.40;43.03
21623;BME280;10973;46.706;12.340;2023-04-05T04:56:23;87041.50;;;-2.44;43.21
21623;BME280;10973;46.706;12.340;2023-04-05T04:58:55;87045.00;;;-2.49;42.83
21623;BME280;10973;46.706;12.340;2023-04-05T05:01:23;87050.16;;;-2.49;42.42
21623;BME280;10973;46.706;12.340;2023-04-05T05:03:51;87040.88;;;-2.50;42.75
21623;BME280;10973;46.706;12.340;2023-04-05T05:06:18;87043.19;;;-2.48;42.56
21623;BME280;10973;46.706;12.340;2023-04-05T05:08:45;87039.84;;;-2.49;42.70
21623;BME280;10973;46.706;12.340;2023-04-05T05:11:13;87050.00;;;-2.44;43.16
21623;BME280;10973;46.706;12.340;2023-04-05T05:13:40;87043.03;;;-2.43;43.15
21623;BME280;10973;46.706;12.340;2023-04-05T05:16:10;87042.56;;;-2.45;43.12
21623;BME280;10973;46.706;12.340;2023-04-05T05:18:37;87045.91;;;-2.45;43.04
21623;BME280;10973;46.706;12.340;2023-04-05T05:21:04;87050.28;;;-2.45;42.37
21623;BME280;10973;46.706;12.340;2023-04-05T05:23:31;87046.66;;;-2.44;42.71
21623;BME280;10973;46.706;12.340;2023-04-05T05:25:59;87048.78;;;-2.46;42.95
21623;BME280;10973;46.706;12.340;2023-04-05T05:28:26;87051.06;;;-2.45;42.69
21623;BME280;10973;46.706;12.340;2023-04-05T05:30:54;87052.28;;;-2.42;43.29
21623;BME280;10973;46.706;12.340;2023-04-05T05:33:21;87053.19;;;-2.38;42.78
21623;BME280;10973;46.706;12.340;2023-04-05T05:35:49;87052.13;;;-2.37;43.02
21623;BME280;10973;46.706;12.340;2023-04-05T05:38:17;87048.47;;;-2.36;42.62
21623;BME280;10973;46.706;12.340;2023-04-05T05:40:44;87056.38;;;-2.33;43.00
21623;BME280;10973;46.706;12.340;2023-04-05T05:43:12;87048.66;;;-2.33;43.00
21623;BME280;10973;46.706;12.340;2023-04-05T05:45:39;87047.13;;;-2.34;43.29
21623;BME280;10973;46.706;12.340;2023-04-05T05:48:06;87047.28;;;-2.30;43.48
21623;BME280;10973;46.706;12.340;2023-04-05T05:50:33;87053.03;;;-2.33;42.98
21623;BME280;10973;46.706;12.340;2023-04-05T05:53:01;87051.38;;;-2.29;43.02
21623;BME280;10973;46.706;12.340;2023-04-05T05:55:28;87053.22;;;-2.30;42.72
21623;BME280;10973;46.706;12.340;2023-04-05T05:57:55;87057.47;;;-2.25;42.58
21623;BME280;10973;46.706;12.340;2023-04-05T06:00:22;87049.25;;;-2.27;43.40
21623;BME280;10973;46.706;12.340;2023-04-05T06:02:50;87048.97;;;-2.26;42.64
21623;BME280;10973;46.706;12.340;2023-04-05T06:05:17;87052.13;;;-2.20;42.81
21623;BME280;10973;46.706;12.340;2023-04-05T06:07:44;87047.59;;;-2.14;43.09
21623;BME280;10973;46.706;12.340;2023-04-05T06:10:12;87051.25;;;-2.07;42.86
21623;BME280;10973;46.706;12.340;2023-04-05T06:12:40;87048.34;;;-2.05;42.86
21623;BME280;10973;46.706;12.340;2023-04-05T06:15:08;87050.59;;;-2.04;43.28
21623;BME280;10973;46.706;12.340;2023-04-05T06:17:35;87047.28;;;-1.96;43.14
21623;BME280;10973;46.706;12.340;2023-04-05T06:20:03;87047.41;;;-1.84;42.75
21623;BME280;10973;46.706;12.340;2023-04-05T06:22:30;87047.41;;;-1.84;43.11
21623;BME280;10973;46.706;12.340;2023-04-05T06:24:58;87044.66;;;-1.79;42.55
21623;BME280;10973;46.706;12.340;2023-04-05T06:27:25;87047.38;;;-1.67;42.11
21623;BME280;10973;46.706;12.340;2023-04-05T06:29:52;87037.63;;;-1.53;41.73
21623;BME280;10973;46.706;12.340;2023-04-05T06:32:20;87040.50;;;-1.46;41.56
21623;BME280;10973;46.706;12.340;2023-04-05T06:34:47;87034.81;;;-1.30;41.06
21623;BME280;10973;46.706;12.340;2023-04-05T06:37:14;87036.00;;;-1.19;41.58
21623;BME280;10973;46.706;12.340;2023-04-05T06:39:41;87035.47;;;-1.04;41.33
21623;BME280;10973;46.706;12.340;2023-04-05T06:42:08;87035.13;;;-0.94;40.88
21623;BME280;10973;46.706;12.340;2023-04-05T06:44:36;87023.03;;;-0.82;40.73
21623;BME280;10973;46.706;12.340;2023-04-05T06:47:03;87023.91;;;-0.69;40.67
21623;BME280;10973;46.706;12.340;2023-04-05T06:49:30;87015.03;;;-0.59;40.19
21623;BME280;10973;46.706;12.340;2023-04-05T06:51:57;87018.63;;;-0.52;39.96
21623;BME280;10973;46.706;12.340;2023-04-05T06:54:25;87017.50;;;-0.42;39.84
21623;BME280;10973;46.706;12.340;2023-04-05T06:56:52;87019.84;;;-0.29;39.66
21623;BME280;10973;46.706;12.340;2023-04-05T06:59:19;87008.22;;;-0.23;39.41
21623;BME280;10973;46.706;12.340;2023-04-05T07:01:46;87017.75;;;-0.15;39.18
21623;BME280;10973;46.706;12.340;2023-04-05T07:04:14;87004.63;;;-0.10;38.45
21623;BME280;10973;46.706;12.340;2023-04-05T07:06:41;87009.47;;;-0.08;37.90
21623;BME280;10973;46.706;12.340;2023-04-05T07:09:08;87002.72;;;-0.01;37.89
21623;BME280;10973;46.706;12.340;2023-04-05T07:11:35;86998.66;;;0.11;37.35
21623;BME280;10973;46.706;12.340;2023-04-05T07:14:02;86998.22;;;0.09;36.75
21623;BME280;10973;46.706;12.340;2023-04-05T07:16:30;86999.03;;;0.21;37.19
21623;BME280;10973;46.706;12.340;2023-04-05T07:18:58;86995.28;;;0.31;37.33
21623;BME280;10973;46.706;12.340;2023-04-05T07:21:27;86999.31;;;0.40;36.86
21623;BME280;10973;46.706;12.340;2023-04-05T07:23:54;86991.13;;;0.50;36.57
21623;BME280;10973;46.706;12.340;2023-04-05T07:26:22;86991.91;;;0.63;36.45
21623;BME280;10973;46.706;12.340;2023-04-05T07:28:49;86991.47;;;0.73;35.78
21623;BME280;10973;46.706;12.340;2023-04-05T07:31:16;86985.88;;;0.83;35.37
21623;BME280;10973;46.706;12.340;2023-04-05T07:33:43;86991.41;;;0.94;34.89
21623;BME280;10973;46.706;12.340;2023-04-05T07:36:11;86985.91;;;1.07;34.49
21623;BME280;10973;46.706;12.340;2023-04-05T07:38:38;86979.00;;;1.11;34.15
21623;BME280;10973;46.706;12.340;2023-04-05T07:41:05;86982.88;;;1.17;33.32
21623;BME280;10973;46.706;12.340;2023-04-05T07:43:32;86988.94;;;1.21;33.20
21623;BME280;10973;46.706;12.340;2023-04-05T07:46:03;86987.53;;;1.24;33.42
21623;BME280;10973;46.706;12.340;2023-04-05T07:48:30;86985.59;;;1.33;33.60
21623;BME280;10973;46.706;12.340;2023-04-05T07:51:08;86987.00;;;1.42;33.09
21623;BME280;10973;46.706;12.340;2023-04-05T07:53:36;86985.59;;;1.45;32.49
21623;BME280;10973;46.706;12.340;2023-04-05T07:56:08;86978.44;;;1.54;32.51
21623;BME280;10973;46.706;12.340;2023-04-05T07:58:36;86987.72;;;1.67;32.34
21623;BME280;10973;46.706;12.340;2023-04-05T08:01:04;86986.72;;;1.72;32.44
21623;BME280;10973;46.706;12.340;2023-04-05T08:03:31;86980.56;;;1.76;32.38
21623;BME280;10973;46.706;12.340;2023-04-05T08:06:12;86983.78;;;1.85;32.29
21623;BME280;10973;46.706;12.340;2023-04-05T08:08:40;86980.97;;;1.90;31.90
21623;BME280;10973;46.706;12.340;2023-04-05T08:11:07;86970.00;;;1.97;31.61
21623;BME280;10973;46.706;12.340;2023-04-05T08:13:35;86969.44;;;2.03;31.19
21623;BME280;10973;46.706;12.340;2023-04-05T08:16:02;86973.97;;;2.06;31.18
21623;BME280;10973;46.706;12.340;2023-04-05T08:18:29;86970.47;;;2.14;31.44
21623;BME280;10973;46.706;12.340;2023-04-05T08:20:57;86966.25;;;2.22;31.53
21623;BME280;10973;46.706;12.340;2023-04-05T08:23:24;86963.41;;;2.27;31.22
21623;BME280;10973;46.706;12.340;2023-04-05T08:25:52;86958.47;;;2.38;31.07
21623;BME280;10973;46.706;12.340;2023-04-05T08:28:19;86954.97;;;2.46;30.99
21623;BME280;10973;46.706;12.340;2023-04-05T08:30:47;86951.78;;;2.52;31.12
21623;BME280;10973;46.706;12.340;2023-04-05T08:33:18;86957.09;;;2.56;30.82
21623;BME280;10973;46.706;12.340;2023-04-05T08:35:45;86954.06;;;2.54;29.76
21623;BME280;10973;46.706;12.340;2023-04-05T08:38:13;86953.38;;;2.57;29.39
21623;BME280;10973;46.706;12.340;2023-04-05T08:40:45;86951.13;;;2.71;29.58
21623;BME280;10973;46.706;12.340;2023-04-05T08:45:52;86948.31;;;2.92;28.90
21623;BME280;10973;46.706;12.340;2023-04-05T08:48:20;86953.16;;;2.93;28.35
21623;BME280;10973;46.706;12.340;2023-04-05T08:50:54;86934.53;;;2.91;27.95
21623;BME280;10973;46.706;12.340;2023-04-05T08:53:22;86941.34;;;2.96;28.61
21623;BME280;10973;46.706;12.340;2023-04-05T08:55:54;86933.03;;;3.06;27.60
21623;BME280;10973;46.706;12.340;2023-04-05T08:58:23;86940.34;;;3.16;28.40
21623;BME280;10973;46.706;12.340;2023-04-05T09:00:52;86935.63;;;3.21;28.28
21623;BME280;10973;46.706;12.340;2023-04-05T09:03:25;86937.31;;;3.14;27.21
21623;BME280;10973;46.706;12.340;2023-04-05T09:05:58;86937.56;;;3.09;25.96
21623;BME280;10973;46.706;12.340;2023-04-05T09:08:26;86933.78;;;3.22;26.69
21623;BME280;10973;46.706;12.340;2023-04-05T09:10:53;86933.53;;;3.27;26.08
21623;BME280;10973;46.706;12.340;2023-04-05T09:13:20;86928.19;;;3.39;25.77
21623;BME280;10973;46.706;12.340;2023-04-05T09:15:48;86932.91;;;3.49;25.84
21623;BME280;10973;46.706;12.340;2023-04-05T09:18:15;86931.53;;;3.55;25.29
21623;BME280;10973;46.706;12.340;2023-04-05T09:21:04;86931.84;;;3.69;26.61
21623;BME280;10973;46.706;12.340;2023-04-05T09:23:36;86926.78;;;3.76;26.08
21623;BME280;10973;46.706;12.340;2023-04-05T09:26:24;86925.16;;;3.87;25.74
21623;BME280;10973;46.706;12.340;2023-04-05T09:28:51;86916.81;;;3.97;24.76
21623;BME280;10973;46.706;12.340;2023-04-05T09:31:35;86916.59;;;4.06;24.78
21623;BME280;10973;46.706;12.340;2023-04-05T09:34:04;86920.09;;;4.13;24.37
21623;BME280;10973;46.706;12.340;2023-04-05T09:36:35;86905.19;;;4.14;23.51
21623;BME280;10973;46.706;12.340;2023-04-05T09:39:09;86906.91;;;4.25;24.45
21623;BME280;10973;46.706;12.340;2023-04-05T09:41:36;86909.88;;;4.24;25.62
21623;BME280;10973;46.706;12.340;2023-04-05T09:44:03;86906.09;;;4.41;24.77
21623;BME280;10973;46.706;12.340;2023-04-05T09:46:35;86905.50;;;4.51;25.11
21623;BME280;10973;46.706;12.340;2023-04-05T09:49:03;86898.50;;;4.55;23.95
21623;BME280;10973;46.706;12.340;2023-04-05T09:51:37;86906.94;;;4.67;24.45
21623;BME280;10973;46.706;12.340;2023-04-05T09:54:10;86893.66;;;4.76;24.46
21623;BME280;10973;46.706;12.340;2023-04-05T09:56:40;86892.13;;;4.75;23.26
21623;BME280;10973;46.706;12.340;2023-04-05T09:59:20;86894.31;;;4.92;23.39
21623;BME280;10973;46.706;12.340;2023-04-05T10:01:51;86885.19;;;5.05;22.84
21623;BME280;10973;46.706;12.340;2023-04-05T10:04:19;86884.81;;;5.06;21.74
21623;BME280;10973;46.706;12.340;2023-04-05T10:06:46;86892.88;;;5.21;21.02
21623;BME280;10973;46.706;12.340;2023-04-05T10:09:14;86881.06;;;5.27;21.45
21623;BME280;10973;46.706;12.340;2023-04-05T10:11:44;86874.47;;;5.36;21.43
21623;BME280;10973;46.706;12.340;2023-04-05T10:14:11;86878.75;;;5.48;22.10
21623;BME280;10973;46.706;12.340;2023-04-05T10:16:54;86874.47;;;5.62;20.23
21623;BME280;10973;46.706;12.340;2023-04-05T10:20:20;86878.69;;;5.70;20.54
21623;BME280;10973;46.706;12.340;2023-04-05T10:22:30;86870.94;;;5.77;19.68
21623;BME280;10973;46.706;12.340;2023-04-05T10:25:07;86857.50;;;6.05;20.13
21623;BME280;10973;46.706;12.340;2023-04-05T10:27:48;86860.31;;;6.56;20.55
21623;BME280;10973;46.706;12.340;2023-04-05T10:30:18;86854.13;;;7.15;19.99
21623;BME280;10973;46.706;12.340;2023-04-05T10:33:28;86851.75;;;8.08;19.46
21623;BME280;10973;46.706;12.340;2023-04-05T10:36:08;86855.41;;;8.86;18.53
21623;BME280;10973;46.706;12.340;2023-04-05T10:41:41;86844.56;;;11.67;16.40
21623;BME280;10973;46.706;12.340;2023-04-05T10:44:10;86840.09;;;12.49;14.53
21623;BME280;10973;46.706;12.340;2023-04-05T10:46:53;86838.44;;;13.26;14.15
21623;BME280;10973;46.706;12.340;2023-04-05T10:49:42;86832.09;;;14.46;13.34
21623;BME280;10973;46.706;12.340;2023-04-05T10:52:11;86831.09;;;15.19;12.29
21623;BME280;10973;46.706;12.340;2023-04-05T10:54:39;86830.91;;;15.81;11.67
21623;BME280;10973;46.706;12.340;2023-04-05T10:57:08;86818.56;;;16.39;10.64
21623;BME280;10973;46.706;12.340;2023-04-05T10:59:42;86818.81;;;17.18;10.60
21623;BME280;10973;46.706;12.340;2023-04-05T11:02:12;86820.56;;;18.16;10.16
21623;BME280;10973;46.706;12.340;2023-04-05T11:04:40;86818.41;;;18.96;10.16
21623;BME280;10973;46.706;12.340;2023-04-05T11:07:16;86818.31;;;19.64;9.71
21623;BME280;10973;46.706;12.340;2023-04-05T11:20:51;86803.84;;;20.45;8.37
21623;BME280;10973;46.706;12.340;2023-04-05T11:23:21;86807.78;;;19.91;8.16
21623;BME280;10973;46.706;12.340;2023-04-05T11:26:03;86804.16;;;20.16;8.85
21623;BME280;10973;46.706;12.340;2023-04-05T11:28:36;86796.38;;;20.40;8.15
21623;BME280;10973;46.706;12.340;2023-04-05T11:31:15;86794.59;;;20.28;9.29
21623;BME280;10973;46.706;12.340;2023-04-05T11:36:43;86795.91;;;20.02;8.21
21623;BME280;10973;46.706;12.340;2023-04-05T11:42:01;86785.41;;;19.76;8.72
21623;BME280;10973;46.706;12.340;2023-04-05T11:44:41;86778.50;;;19.57;9.30
21623;BME280;10973;46.706;12.340;2023-04-05T11:47:08;86774.88;;;19.30;8.55
21623;BME280;10973;46.706;12.340;2023-04-05T11:49:36;86769.63;;;19.39;8.70
21623;BME280;10973;46.706;12.340;2023-04-05T11:52:19;86772.69;;;18.94;8.53
21623;BME280;10973;46.706;12.340;2023-04-05T11:54:46;86777.75;;;18.32;8.99
21623;BME280;10973;46.706;12.340;2023-04-05T11:57:22;86774.06;;;18.05;9.50
21623;BME280;10973;46.706;12.340;2023-04-05T11:59:51;86768.53;;;17.74;9.42
21623;BME280;10973;46.706;12.340;2023-04-05T12:02:19;86769.28;;;17.87;9.59
21623;BME280;10973;46.706;12.340;2023-04-05T12:04:56;86767.25;;;17.91;9.84
21623;BME280;10973;46.706;12.340;2023-04-05T12:07:28;86766.59;;;17.74;9.17
21623;BME280;10973;46.706;12.340;2023-04-05T12:12:42;86766.75;;;17.17;10.43
21623;BME280;10973;46.706;12.340;2023-04-05T12:15:12;86762.88;;;17.05;10.56
21623;BME280;10973;46.706;12.340;2023-04-05T12:17:50;86763.91;;;16.95;10.63
21623;BME280;10973;46.706;12.340;2023-04-05T12:20:21;86760.78;;;16.84;10.69
21623;BME280;10973;46.706;12.340;2023-04-05T12:22:51;86760.75;;;16.72;11.31
21623;BME280;10973;46.706;12.340;2023-04-05T12:25:20;86762.34;;;16.69;11.51
21623;BME280;10973;46.706;12.340;2023-04-05T12:27:47;86763.88;;;16.22;10.22
21623;BME280;10973;46.706;12.340;2023-04-05T12:32:54;86764.44;;;16.01;11.59
21623;BME280;10973;46.706;12.340;2023-04-05T12:35:29;86754.28;;;16.12;11.49
21623;BME280;10973;46.706;12.340;2023-04-05T12:37:58;86754.44;;;16.21;11.43
21623;BME280;10973;46.706;12.340;2023-04-05T12:40:27;86760.50;;;16.21;11.50
21623;BME280;10973;46.706;12.340;2023-04-05T12:43:05;86752.69;;;16.14;11.78
21623;BME280;10973;46.706;12.340;2023-04-05T12:45:33;86745.28;;;16.22;10.74
21623;BME280;10973;46.706;12.340;2023-04-05T12:48:01;86743.53;;;16.15;11.88
21623;BME280;10973;46.706;12.340;2023-04-05T12:50:30;86742.25;;;16.07;11.04
21623;BME280;10973;46.706;12.340;2023-04-05T12:53:00;86741.16;;;16.21;11.87
21623;BME280;10973;46.706;12.340;2023-04-05T12:55:31;86737.06;;;16.32;11.35
21623;BME280;10973;46.706;12.340;2023-04-05T12:58:01;86738.84;;;16.35;10.99
21623;BME280;10973;46.706;12.340;2023-04-05T13:00:29;86729.47;;;16.31;10.80
21623;BME280;10973;46.706;12.340;2023-04-05T13:02:58;86723.75;;;16.32;11.17
21623;BME280;10973;46.706;12.340;2023-04-05T13:05:28;86730.00;;;16.26;10.50
21623;BME280;10973;46.706;12.340;2023-04-05T13:07:57;86724.44;;;16.20;11.09
21623;BME280;10973;46.706;12.340;2023-04-05T13:10:25;86723.84;;;16.29;12.14
21623;BME280;10973;46.706;12.340;2023-04-05T13:12:52;86718.84;;;16.31;11.47
21623;BME280;10973;46.706;12.340;2023-04-05T13:15:20;86709.56;;;16.23;11.94
21623;BME280;10973;46.706;12.340;2023-04-05T13:17:47;86714.78;;;16.26;10.95
21623;BME280;10973;46.706;12.340;2023-04-05T13:20:15;86720.81;;;16.14;11.25
21623;BME280;10973;46.706;12.340;2023-04-05T13:22:44;86712.56;;;16.09;10.71
21623;BME280;10973;46.706;12.340;2023-04-05T13:25:13;86712.75;;;16.02;12.44
21623;BME280;10973;46.706;12.340;2023-04-05T13:27:41;86713.06;;;16.04;12.13
21623;BME280;10973;46.706;12.340;2023-04-05T13:30:09;86707.34;;;16.21;11.37
21623;BME280;10973;46.706;12.340;2023-04-05T13:32:37;86709.47;;;16.26;10.96
21623;BME280;10973;46.706;12.340;2023-04-05T13:35:05;86701.78;;;16.16;10.93
21623;BME280;10973;46.706;12.340;2023-04-05T13:37:32;86703.75;;;16.28;11.70
21623;BME280;10973;46.706;12.340;2023-04-05T13:39:59;86701.88;;;16.41;12.23
21623;BME280;10973;46.706;12.340;2023-04-05T13:42:27;86699.22;;;16.41;10.66
21623;BME280;10973;46.706;12.340;2023-04-05T13:44:54;86700.50;;;16.49;11.11